createdAt,value
2022-09-09T00:00:48.411Z,0.00
2022-09-09T00:01:48.396Z,0.00
2022-09-09T00:02:48.498Z,0.00
2022-09-09T00:03:48.499Z,0.00
2022-09-09T00:04:48.389Z,0.00
2022-09-09T00:05:48.383Z,0.00
2022-09-09T00:06:48.382Z,0.00
2022-09-09T00:07:48.394Z,0.00
2022-09-09T00:08:48.386Z,0.00
2022-09-09T00:09:48.382Z,0.00
2022-09-09T00:10:48.387Z,0.00
2022-09-09T00:11:48.388Z,0.00
2022-09-09T00:12:48.390Z,0.00
2022-09-09T00:13:48.381Z,0.00
2022-09-09T00:14:48.388Z,0.00
2022-09-09T00:15:48.398Z,0.00
2022-09-09T00:16:48.392Z,0.00
2022-09-09T00:17:48.378Z,0.00
2022-09-09T00:18:48.370Z,0.00
2022-09-09T00:19:48.371Z,0.00
2022-09-09T00:20:48.375Z,0.00
2022-09-09T00:21:48.372Z,0.00
2022-09-09T00:22:48.376Z,0.00
2022-09-09T00:23:48.368Z,0.00
2022-09-09T00:24:48.359Z,0.00
2022-09-09T00:25:52.252Z,0.00
2022-09-09T00:26:48.364Z,0.00
2022-09-09T00:27:48.358Z,0.00
2022-09-09T00:28:48.363Z,0.00
2022-09-09T00:29:48.369Z,0.00
2022-09-09T00:30:48.424Z,0.00
2022-09-09T00:31:48.361Z,0.00
2022-09-09T00:32:48.372Z,0.00
2022-09-09T00:33:48.352Z,0.00
2022-09-09T00:34:48.356Z,0.00
2022-09-09T00:35:48.355Z,0.00
2022-09-09T00:36:48.358Z,0.00
2022-09-09T00:37:48.356Z,0.00
2022-09-09T00:38:48.349Z,0.00
2022-09-09T00:39:48.433Z,0.00
2022-09-09T00:40:48.348Z,0.00
2022-09-09T00:41:48.361Z,0.00
2022-09-09T00:42:48.334Z,0.00
2022-09-09T00:43:48.340Z,0.00
2022-09-09T00:44:48.343Z,0.00
2022-09-09T00:45:48.394Z,0.00
2022-09-09T00:46:48.337Z,0.00
2022-09-09T00:47:48.362Z,0.00
2022-09-09T00:48:48.376Z,0.00
2022-09-09T00:49:48.338Z,0.00
2022-09-09T00:50:48.332Z,0.00
2022-09-09T00:51:48.333Z,0.00
2022-09-09T00:52:48.333Z,0.00
2022-09-09T00:53:48.345Z,0.00
2022-09-09T00:54:48.337Z,0.00
2022-09-09T00:55:48.340Z,0.00
2022-09-09T00:56:48.331Z,0.00
2022-09-09T00:57:48.328Z,0.00
2022-09-09T00:58:48.329Z,0.00
2022-09-09T00:59:48.320Z,0.00
2022-09-09T01:00:48.324Z,0.00
2022-09-09T01:01:48.384Z,0.00
2022-09-09T01:02:48.385Z,0.00
2022-09-09T01:03:48.320Z,0.00
2022-09-09T01:04:48.337Z,0.00
2022-09-09T01:05:48.322Z,0.00
2022-09-09T01:06:48.317Z,0.00
2022-09-09T01:07:48.323Z,0.00
2022-09-09T01:08:48.308Z,0.00
2022-09-09T01:09:48.327Z,0.00
2022-09-09T01:10:48.314Z,0.00
2022-09-09T01:11:48.312Z,0.00
2022-09-09T01:12:48.344Z,0.00
2022-09-09T01:13:48.315Z,0.00
2022-09-09T01:14:48.318Z,0.00
2022-09-09T01:15:48.304Z,0.00
2022-09-09T01:16:48.332Z,0.00
2022-09-09T01:17:48.311Z,0.00
2022-09-09T01:18:48.309Z,0.00
2022-09-09T01:19:48.309Z,0.00
2022-09-09T01:20:48.328Z,0.00
2022-09-09T01:21:48.313Z,0.00
2022-09-09T01:22:48.301Z,0.00
2022-09-09T01:23:48.310Z,0.00
2022-09-09T01:24:48.306Z,0.00
2022-09-09T01:25:48.308Z,0.00
2022-09-09T01:26:48.306Z,0.00
2022-09-09T01:27:48.297Z,0.00
2022-09-09T01:28:48.296Z,0.00
2022-09-09T01:29:48.292Z,0.00
2022-09-09T01:30:48.345Z,0.00
2022-09-09T01:31:48.302Z,0.00
2022-09-09T01:32:48.314Z,0.00
2022-09-09T01:33:48.301Z,0.00
2022-09-09T01:34:48.304Z,0.00
2022-09-09T01:35:48.293Z,0.00
2022-09-09T01:36:48.318Z,0.00
2022-09-09T01:37:48.292Z,0.00
2022-09-09T01:38:48.307Z,0.00
2022-09-09T01:39:48.329Z,0.00
2022-09-09T01:40:48.296Z,0.00
2022-09-09T01:41:48.290Z,0.00
2022-09-09T01:42:48.279Z,0.00
2022-09-09T01:43:48.284Z,0.00
2022-09-09T01:44:48.287Z,0.00
2022-09-09T01:45:48.318Z,0.00
2022-09-09T01:46:48.294Z,0.00
2022-09-09T01:47:48.281Z,0.00
2022-09-09T01:48:48.287Z,0.00
2022-09-09T01:49:48.279Z,0.00
2022-09-09T01:50:48.280Z,0.00
2022-09-09T01:51:48.286Z,0.00
2022-09-09T01:52:48.297Z,0.00
2022-09-09T01:53:48.271Z,0.00
2022-09-09T01:54:48.272Z,0.00
2022-09-09T01:55:48.286Z,0.00
2022-09-09T01:56:48.263Z,0.00
2022-09-09T01:57:48.273Z,0.00
2022-09-09T01:58:48.276Z,0.00
2022-09-09T01:59:48.272Z,0.00
2022-09-09T02:00:48.291Z,0.00
2022-09-09T02:01:48.265Z,0.00
2022-09-09T02:02:48.339Z,0.00
2022-09-09T02:03:48.272Z,0.00
2022-09-09T02:04:48.262Z,0.00
2022-09-09T02:05:48.272Z,0.00
2022-09-09T02:06:48.255Z,0.00
2022-09-09T02:07:48.252Z,0.00
2022-09-09T02:08:48.271Z,0.00
2022-09-09T02:09:48.249Z,0.00
2022-09-09T02:10:48.246Z,0.00
2022-09-09T02:11:48.241Z,0.00
2022-09-09T02:12:48.254Z,0.00
2022-09-09T02:13:48.250Z,0.00
2022-09-09T02:14:48.247Z,0.00
2022-09-09T02:15:48.250Z,0.00
2022-09-09T02:16:48.261Z,0.00
2022-09-09T02:17:48.234Z,0.00
2022-09-09T02:18:48.249Z,0.00
2022-09-09T02:19:48.227Z,0.00
2022-09-09T02:20:48.229Z,0.00
2022-09-09T02:21:48.228Z,0.00
2022-09-09T02:22:48.293Z,0.00
2022-09-09T02:23:48.251Z,0.00
2022-09-09T02:24:48.243Z,0.00
2022-09-09T02:25:48.230Z,0.00
2022-09-09T02:26:48.220Z,0.00
2022-09-09T02:27:48.216Z,0.00
2022-09-09T02:28:48.223Z,0.00
2022-09-09T02:29:48.223Z,0.00
2022-09-09T02:30:48.326Z,0.00
2022-09-09T02:31:48.205Z,0.00
2022-09-09T02:32:48.211Z,0.00
2022-09-09T02:33:48.210Z,0.00
2022-09-09T02:34:48.207Z,0.00
2022-09-09T02:35:48.217Z,0.00
2022-09-09T02:36:48.214Z,0.00
2022-09-09T02:37:48.197Z,0.00
2022-09-09T02:38:48.206Z,0.00
2022-09-09T02:39:48.240Z,0.00
2022-09-09T02:40:48.217Z,0.00
2022-09-09T02:41:48.214Z,0.00
2022-09-09T02:42:48.192Z,0.00
2022-09-09T02:43:48.188Z,0.00
2022-09-09T02:44:48.198Z,0.00
2022-09-09T02:45:48.217Z,0.00
2022-09-09T02:46:48.190Z,0.00
2022-09-09T02:47:48.183Z,0.00
2022-09-09T02:48:48.199Z,0.00
2022-09-09T02:49:48.175Z,0.00
2022-09-09T02:50:48.175Z,0.00
2022-09-09T02:51:48.186Z,0.00
2022-09-09T02:52:48.187Z,0.00
2022-09-09T02:53:48.183Z,0.00
2022-09-09T02:54:48.173Z,0.00
2022-09-09T02:55:48.164Z,0.00
2022-09-09T02:56:48.196Z,0.00
2022-09-09T02:57:48.171Z,0.00
2022-09-09T02:58:48.162Z,0.00
2022-09-09T02:59:48.165Z,0.00
2022-09-09T03:00:48.219Z,0.00
2022-09-09T03:01:48.159Z,0.00
2022-09-09T03:02:48.292Z,0.00
2022-09-09T03:03:48.166Z,0.00
2022-09-09T03:04:48.152Z,0.00
2022-09-09T03:05:48.169Z,0.00
2022-09-09T03:06:48.148Z,0.00
2022-09-09T03:07:48.152Z,0.00
2022-09-09T03:08:49.770Z,0.00
2022-09-09T03:09:48.158Z,0.00
2022-09-09T03:10:48.153Z,0.00
2022-09-09T03:11:48.142Z,0.00
2022-09-09T03:12:48.178Z,0.00
2022-09-09T03:13:48.143Z,0.00
2022-09-09T03:14:48.142Z,0.00
2022-09-09T03:15:48.143Z,0.00
2022-09-09T03:16:48.205Z,0.00
2022-09-09T03:17:48.161Z,0.00
2022-09-09T03:18:48.129Z,0.00
2022-09-09T03:19:48.137Z,0.00
2022-09-09T03:20:48.125Z,0.00
2022-09-09T03:21:48.148Z,0.00
2022-09-09T03:22:48.139Z,0.00
2022-09-09T03:23:48.122Z,0.00
2022-09-09T03:24:48.132Z,0.00
2022-09-09T03:25:48.124Z,0.00
2022-09-09T03:26:48.136Z,0.00
2022-09-09T03:27:48.124Z,0.00
2022-09-09T03:28:48.146Z,0.00
2022-09-09T03:29:48.117Z,0.00
2022-09-09T03:30:48.114Z,0.00
2022-09-09T03:31:48.165Z,0.00
2022-09-09T03:32:49.064Z,0.00
2022-09-09T03:33:48.117Z,0.00
2022-09-09T03:34:48.108Z,0.00
2022-09-09T03:35:48.105Z,0.00
2022-09-09T03:36:48.109Z,0.00
2022-09-09T03:37:48.102Z,0.00
2022-09-09T03:38:48.116Z,0.00
2022-09-09T03:39:48.142Z,0.00
2022-09-09T03:40:48.096Z,0.00
2022-09-09T03:41:48.110Z,0.00
2022-09-09T03:42:48.095Z,0.00
2022-09-09T03:43:48.083Z,0.00
2022-09-09T03:44:48.115Z,0.00
2022-09-09T03:45:48.155Z,0.00
2022-09-09T03:46:48.079Z,0.00
2022-09-09T03:47:48.086Z,0.00
2022-09-09T03:48:48.085Z,0.00
2022-09-09T03:49:48.089Z,0.00
2022-09-09T03:50:48.090Z,0.00
2022-09-09T03:51:48.080Z,0.00
2022-09-09T03:52:48.075Z,0.00
2022-09-09T03:53:48.080Z,0.00
2022-09-09T03:54:48.070Z,0.00
2022-09-09T03:55:48.088Z,0.00
2022-09-09T03:56:48.077Z,0.00
2022-09-09T03:57:48.072Z,0.00
2022-09-09T03:58:48.067Z,0.00
2022-09-09T03:59:48.064Z,0.00
2022-09-09T04:00:48.115Z,0.00
2022-09-09T04:01:48.114Z,0.00
2022-09-09T04:02:48.066Z,0.00
2022-09-09T04:03:48.052Z,0.00
2022-09-09T04:04:48.057Z,0.00
2022-09-09T04:05:48.060Z,0.00
2022-09-09T04:06:48.047Z,0.00
2022-09-09T04:07:48.052Z,0.00
2022-09-09T04:08:48.047Z,0.00
2022-09-09T04:09:48.052Z,0.00
2022-09-09T04:10:48.047Z,0.00
2022-09-09T04:11:48.056Z,0.00
2022-09-09T04:12:49.598Z,0.00
2022-09-09T04:13:48.041Z,0.00
2022-09-09T04:14:48.042Z,0.00
2022-09-09T04:15:48.037Z,0.00
2022-09-09T04:16:48.117Z,0.00
2022-09-09T04:17:48.035Z,0.00
2022-09-09T04:18:48.024Z,0.00
2022-09-09T04:19:48.024Z,0.00
2022-09-09T04:20:48.030Z,0.00
2022-09-09T04:21:48.017Z,0.00
2022-09-09T04:22:48.027Z,0.00
2022-09-09T04:23:48.022Z,0.00
2022-09-09T04:24:48.877Z,0.00
2022-09-09T04:25:48.030Z,0.00
2022-09-09T04:26:48.032Z,0.00
2022-09-09T04:27:48.014Z,0.00
2022-09-09T04:28:48.010Z,0.00
2022-09-09T04:29:48.009Z,0.00
2022-09-09T04:30:48.013Z,0.00
2022-09-09T04:31:48.154Z,0.00
2022-09-09T04:32:48.027Z,0.00
2022-09-09T04:33:48.008Z,0.00
2022-09-09T04:34:48.005Z,0.00
2022-09-09T04:35:48.002Z,0.00
2022-09-09T04:36:47.999Z,0.00
2022-09-09T04:37:47.999Z,0.00
2022-09-09T04:38:47.999Z,0.00
2022-09-09T04:39:48.078Z,0.00
2022-09-09T04:40:47.992Z,0.00
2022-09-09T04:41:47.995Z,0.00
2022-09-09T04:42:47.995Z,0.00
2022-09-09T04:43:47.984Z,0.00
2022-09-09T04:44:47.988Z,0.00
2022-09-09T04:45:48.064Z,0.00
2022-09-09T04:46:47.992Z,0.00
2022-09-09T04:47:47.981Z,0.00
2022-09-09T04:48:48.002Z,0.00
2022-09-09T04:49:47.982Z,0.00
2022-09-09T04:50:47.977Z,0.00
2022-09-09T04:51:47.974Z,0.00
2022-09-09T04:52:47.978Z,0.00
2022-09-09T04:53:47.968Z,0.00
2022-09-09T04:54:47.970Z,0.00
2022-09-09T04:55:47.966Z,0.00
2022-09-09T04:56:47.960Z,0.00
2022-09-09T04:57:47.961Z,0.00
2022-09-09T04:58:47.954Z,0.00
2022-09-09T04:59:47.962Z,0.00
2022-09-09T05:00:47.994Z,0.00
2022-09-09T05:01:48.064Z,0.00
2022-09-09T05:02:47.948Z,0.00
2022-09-09T05:03:47.957Z,0.00
2022-09-09T05:04:47.965Z,0.00
2022-09-09T05:05:47.944Z,0.00
2022-09-09T05:06:47.950Z,0.00
2022-09-09T05:07:47.944Z,0.00
2022-09-09T05:08:47.950Z,0.00
2022-09-09T05:09:47.948Z,0.00
2022-09-09T05:10:47.935Z,0.00
2022-09-09T05:11:47.941Z,0.00
2022-09-09T05:12:47.935Z,0.00
2022-09-09T05:13:47.933Z,0.00
2022-09-09T05:14:47.927Z,0.00
2022-09-09T05:15:47.925Z,0.00
2022-09-09T05:16:48.002Z,4.00
2022-09-09T05:17:47.921Z,4.00
2022-09-09T05:18:47.930Z,4.00
2022-09-09T05:19:47.924Z,0.00
2022-09-09T05:20:47.950Z,4.00
2022-09-09T05:21:47.920Z,4.00
2022-09-09T05:22:47.920Z,0.00
2022-09-09T05:23:47.913Z,0.00
2022-09-09T05:24:47.913Z,4.00
2022-09-09T05:25:47.909Z,4.00
2022-09-09T05:26:47.916Z,8.00
2022-09-09T05:27:47.911Z,4.00
2022-09-09T05:28:47.917Z,4.00
2022-09-09T05:29:47.899Z,4.00
2022-09-09T05:30:47.899Z,4.00
2022-09-09T05:31:47.983Z,4.00
2022-09-09T05:32:47.890Z,4.00
2022-09-09T05:33:47.893Z,8.00
2022-09-09T05:34:47.886Z,8.00
2022-09-09T05:35:47.899Z,8.00
2022-09-09T05:36:47.905Z,12.00
2022-09-09T05:37:47.886Z,8.00
2022-09-09T05:38:47.879Z,12.00
2022-09-09T05:39:47.920Z,12.00
2022-09-09T05:40:47.884Z,12.00
2022-09-09T05:41:47.887Z,12.00
2022-09-09T05:42:47.875Z,12.00
2022-09-09T05:43:47.893Z,16.00
2022-09-09T05:44:47.870Z,16.00
2022-09-09T05:45:47.869Z,16.00
2022-09-09T05:46:47.922Z,20.00
2022-09-09T05:47:47.864Z,24.00
2022-09-09T05:48:47.883Z,24.00
2022-09-09T05:49:47.859Z,24.00
2022-09-09T05:50:47.867Z,28.00
2022-09-09T05:51:47.864Z,32.00
2022-09-09T05:52:47.883Z,36.00
2022-09-09T05:53:47.853Z,32.00
2022-09-09T05:54:47.858Z,40.00
2022-09-09T05:55:47.847Z,40.00
2022-09-09T05:56:51.547Z,40.00
2022-09-09T05:57:47.853Z,36.00
2022-09-09T05:58:47.866Z,40.00
2022-09-09T05:59:47.853Z,48.00
2022-09-09T06:00:47.849Z,52.00
2022-09-09T06:01:47.936Z,56.00
2022-09-09T06:02:47.978Z,68.00
2022-09-09T06:03:47.833Z,72.00
2022-09-09T06:04:47.839Z,88.00
2022-09-09T06:05:47.830Z,96.00
2022-09-09T06:06:47.829Z,116.00
2022-09-09T06:07:47.839Z,144.00
2022-09-09T06:08:47.854Z,144.00
2022-09-09T06:09:47.830Z,136.00
2022-09-09T06:10:47.821Z,152.00
2022-09-09T06:11:47.845Z,164.00
2022-09-09T06:12:47.829Z,156.00
2022-09-09T06:13:47.828Z,152.00
2022-09-09T06:14:47.818Z,144.00
2022-09-09T06:15:47.821Z,140.00
2022-09-09T06:16:47.813Z,132.00
2022-09-09T06:17:47.816Z,120.00
2022-09-09T06:18:47.810Z,108.00
2022-09-09T06:19:47.822Z,112.00
2022-09-09T06:20:47.817Z,112.00
2022-09-09T06:21:47.815Z,92.00
2022-09-09T06:22:47.802Z,88.00
2022-09-09T06:23:47.802Z,88.00
2022-09-09T06:24:47.822Z,96.00
2022-09-09T06:25:47.813Z,120.00
2022-09-09T06:26:47.809Z,120.00
2022-09-09T06:27:47.827Z,108.00
2022-09-09T06:28:47.803Z,104.00
2022-09-09T06:29:47.800Z,108.00
2022-09-09T06:30:47.793Z,100.00
2022-09-09T06:31:47.844Z,96.00
2022-09-09T06:32:47.804Z,108.00
2022-09-09T06:33:47.791Z,120.00
2022-09-09T06:34:47.791Z,116.00
2022-09-09T06:35:47.794Z,120.00
2022-09-09T06:36:47.794Z,100.00
2022-09-09T06:37:47.792Z,96.00
2022-09-09T06:38:47.787Z,104.00
2022-09-09T06:39:47.824Z,128.00
2022-09-09T06:40:47.799Z,136.00
2022-09-09T06:41:47.784Z,120.00
2022-09-09T06:42:47.779Z,108.00
2022-09-09T06:43:47.781Z,96.00
2022-09-09T06:44:47.782Z,96.00
2022-09-09T06:45:47.781Z,96.00
2022-09-09T06:46:47.857Z,96.00
2022-09-09T06:47:47.774Z,92.00
2022-09-09T06:48:47.776Z,88.00
2022-09-09T06:49:48.526Z,92.00
2022-09-09T06:50:47.856Z,96.00
2022-09-09T06:51:47.770Z,128.00
2022-09-09T06:52:47.770Z,152.00
2022-09-09T06:53:47.768Z,140.00
2022-09-09T06:54:47.767Z,124.00
2022-09-09T06:55:47.768Z,124.00
2022-09-09T06:56:47.778Z,112.00
2022-09-09T06:57:47.774Z,104.00
2022-09-09T06:58:47.767Z,112.00
2022-09-09T06:59:47.761Z,120.00
2022-09-09T07:00:47.808Z,140.00
2022-09-09T07:01:50.287Z,168.00
2022-09-09T07:02:47.762Z,164.00
2022-09-09T07:03:47.760Z,156.00
2022-09-09T07:04:47.752Z,124.00
2022-09-09T07:05:47.759Z,120.00
2022-09-09T07:06:47.757Z,120.00
2022-09-09T07:07:47.755Z,120.00
2022-09-09T07:08:55.974Z,116.00
2022-09-09T07:09:47.751Z,96.00
2022-09-09T07:10:47.752Z,108.00
2022-09-09T07:11:47.760Z,108.00
2022-09-09T07:12:47.773Z,108.00
2022-09-09T07:13:47.746Z,112.00
2022-09-09T07:14:47.747Z,112.00
2022-09-09T07:15:47.794Z,112.00
2022-09-09T07:16:47.756Z,112.00
2022-09-09T07:17:47.745Z,112.00
2022-09-09T07:18:47.750Z,108.00
2022-09-09T07:19:47.757Z,116.00
2022-09-09T07:20:47.756Z,116.00
2022-09-09T07:21:47.747Z,124.00
2022-09-09T07:22:47.747Z,128.00
2022-09-09T07:23:47.756Z,128.00
2022-09-09T07:24:47.760Z,124.00
2022-09-09T07:25:47.775Z,124.00
2022-09-09T07:26:47.744Z,124.00
2022-09-09T07:27:47.742Z,120.00
2022-09-09T07:28:47.754Z,120.00
2022-09-09T07:29:47.745Z,116.00
2022-09-09T07:30:47.742Z,116.00
2022-09-09T07:31:47.826Z,120.00
2022-09-09T07:32:47.738Z,120.00
2022-09-09T07:33:47.747Z,120.00
2022-09-09T07:34:47.741Z,120.00
2022-09-09T07:35:47.734Z,124.00
2022-09-09T07:36:47.748Z,140.00
2022-09-09T07:37:50.837Z,156.00
2022-09-09T07:38:47.732Z,160.00
2022-09-09T07:39:47.764Z,152.00
2022-09-09T07:40:47.737Z,152.00
2022-09-09T07:41:47.734Z,200.00
2022-09-09T07:42:47.731Z,180.00
2022-09-09T07:43:47.745Z,172.00
2022-09-09T07:44:47.777Z,156.00
2022-09-09T07:45:47.742Z,180.00
2022-09-09T07:46:47.820Z,188.00
2022-09-09T07:47:47.739Z,276.00
2022-09-09T07:48:47.732Z,308.00
2022-09-09T07:49:47.745Z,320.00
2022-09-09T07:50:47.744Z,316.00
2022-09-09T07:51:47.743Z,376.00
2022-09-09T07:52:47.746Z,368.00
2022-09-09T07:53:47.741Z,372.00
2022-09-09T07:54:47.738Z,328.00
2022-09-09T07:55:47.740Z,296.00
2022-09-09T07:56:47.744Z,332.00
2022-09-09T07:57:47.741Z,248.00
2022-09-09T07:58:47.746Z,240.00
2022-09-09T07:59:47.737Z,244.00
2022-09-09T08:00:47.757Z,304.00
2022-09-09T08:01:47.777Z,308.00
2022-09-09T08:02:47.757Z,280.00
2022-09-09T08:03:47.743Z,316.00
2022-09-09T08:04:47.739Z,352.00
2022-09-09T08:05:47.745Z,256.00
2022-09-09T08:06:47.743Z,196.00
2022-09-09T08:07:47.755Z,176.00
2022-09-09T08:08:47.876Z,152.00
2022-09-09T08:09:47.743Z,136.00
2022-09-09T08:10:47.735Z,168.00
2022-09-09T08:11:47.786Z,208.00
2022-09-09T08:13:07.754Z,152.00
2022-09-09T08:13:50.888Z,132.00
2022-09-09T08:14:47.736Z,136.00
2022-09-09T08:15:47.773Z,104.00
2022-09-09T08:16:47.753Z,136.00
2022-09-09T08:17:47.747Z,180.00
2022-09-09T08:18:47.737Z,112.00
2022-09-09T08:19:47.755Z,144.00
2022-09-09T08:20:47.735Z,160.00
2022-09-09T08:21:47.746Z,196.00
2022-09-09T08:22:47.799Z,188.00
2022-09-09T08:23:47.764Z,208.00
2022-09-09T08:24:47.733Z,200.00
2022-09-09T08:25:47.734Z,168.00
2022-09-09T08:26:47.788Z,208.00
2022-09-09T08:27:47.781Z,216.00
2022-09-09T08:28:47.736Z,220.00
2022-09-09T08:29:47.744Z,304.00
2022-09-09T08:30:47.737Z,328.00
2022-09-09T08:31:47.735Z,304.00
2022-09-09T08:32:49.621Z,344.00
2022-09-09T08:33:47.724Z,344.00
2022-09-09T08:34:47.716Z,268.00
2022-09-09T08:35:49.645Z,348.00
2022-09-09T08:36:47.719Z,388.00
2022-09-09T08:37:51.625Z,376.00
2022-09-09T08:38:47.719Z,376.00
2022-09-09T08:39:47.724Z,400.00
2022-09-09T08:40:47.796Z,340.00
2022-09-09T08:41:47.721Z,280.00
2022-09-09T08:42:47.728Z,252.00
2022-09-09T08:43:47.718Z,288.00
2022-09-09T08:44:48.968Z,276.00
2022-09-09T08:45:47.713Z,364.00
2022-09-09T08:46:47.787Z,364.00
2022-09-09T08:47:47.707Z,328.00
2022-09-09T08:48:47.734Z,260.00
2022-09-09T08:49:47.704Z,156.00
2022-09-09T08:50:48.716Z,136.00
2022-09-09T08:51:50.977Z,160.00
2022-09-09T08:52:50.524Z,148.00
2022-09-09T08:53:50.319Z,140.00
2022-09-09T08:54:52.504Z,168.00
2022-09-09T08:55:47.954Z,196.00
2022-09-09T08:56:51.741Z,268.00
2022-09-09T08:57:47.700Z,300.00
2022-09-09T08:58:47.968Z,340.00
2022-09-09T08:59:47.944Z,376.00
2022-09-09T09:00:47.704Z,356.00
2022-09-09T09:02:29.974Z,368.00
2022-09-09T09:03:29.974Z,400.00
2022-09-09T09:04:30.052Z,372.00
2022-09-09T09:05:29.966Z,384.00
2022-09-09T09:06:29.981Z,388.00
2022-09-09T09:07:32.828Z,412.00
2022-09-09T09:08:30.047Z,444.00
2022-09-09T09:09:30.218Z,396.00
2022-09-09T09:10:41.822Z,304.00
2022-09-09T09:11:29.968Z,248.00
2022-09-09T09:12:29.964Z,292.00
2022-09-09T09:17:43.882Z,436.00
2022-09-09T09:18:43.884Z,452.00
2022-09-09T09:19:43.891Z,468.00
2022-09-09T09:20:43.882Z,400.00
2022-09-09T09:21:43.889Z,248.00
2022-09-09T09:22:43.872Z,248.00
2022-09-09T09:23:43.870Z,228.00
2022-09-09T09:24:43.871Z,176.00
2022-09-09T09:25:44.125Z,144.00
2022-09-09T09:26:44.219Z,152.00
2022-09-09T09:27:43.914Z,132.00
2022-09-09T09:28:43.876Z,152.00
2022-09-09T09:36:11.580Z,228.00
2022-09-09T09:37:11.798Z,244.00
2022-09-09T09:40:11.770Z,352.00
2022-09-09T09:41:14.179Z,428.00
2022-09-09T09:42:11.898Z,404.00
2022-09-09T09:43:11.675Z,372.00
2022-09-09T09:44:11.552Z,352.00
2022-09-09T09:45:11.558Z,272.00
2022-09-09T09:46:17.863Z,268.00
2022-09-09T09:47:11.791Z,224.00
2022-09-09T09:48:13.816Z,180.00
2022-09-09T09:49:11.583Z,160.00
2022-09-09T09:50:11.905Z,176.00
2022-09-09T09:51:11.581Z,232.00
2022-09-09T09:52:11.566Z,208.00
2022-09-09T09:53:11.559Z,252.00
2022-09-09T09:54:11.558Z,280.00
2022-09-09T09:55:11.562Z,252.00
2022-09-09T09:56:11.556Z,236.00
2022-09-09T09:57:11.547Z,244.00
2022-09-09T09:58:13.026Z,208.00
2022-09-09T09:59:18.032Z,248.00
2022-09-09T10:00:11.599Z,304.00
2022-09-09T10:01:11.592Z,464.00
2022-09-09T10:02:11.552Z,412.00
2022-09-09T10:03:11.540Z,408.00
2022-09-09T10:04:11.546Z,372.00
2022-09-09T10:05:11.548Z,332.00
2022-09-09T10:06:11.542Z,324.00
2022-09-09T10:07:11.543Z,268.00
2022-09-09T10:08:11.567Z,380.00
2022-09-09T10:09:11.541Z,376.00
2022-09-09T10:10:11.596Z,256.00
2022-09-09T10:11:11.550Z,272.00
2022-09-09T10:12:11.543Z,376.00
2022-09-09T10:13:11.565Z,312.00
2022-09-09T10:14:11.548Z,208.00
2022-09-09T10:15:11.538Z,156.00
2022-09-09T10:16:11.831Z,144.00
2022-09-09T10:17:11.763Z,192.00
2022-09-09T10:18:11.779Z,304.00
2022-09-09T10:19:11.573Z,304.00
2022-09-09T10:20:11.856Z,268.00
2022-09-09T10:21:11.532Z,240.00
2022-09-09T10:22:11.529Z,276.00
2022-09-09T10:23:11.532Z,212.00
2022-09-09T10:24:11.544Z,156.00
2022-09-09T10:25:11.592Z,100.00
2022-09-09T10:26:11.540Z,96.00
2022-09-09T10:27:11.528Z,100.00
2022-09-09T10:28:11.528Z,80.00
2022-09-09T10:29:11.528Z,88.00
2022-09-09T10:30:11.665Z,112.00
2022-09-09T10:31:11.617Z,192.00
2022-09-09T10:32:11.536Z,296.00
2022-09-09T10:33:11.686Z,380.00
2022-09-09T10:34:11.525Z,284.00
2022-09-09T10:35:11.524Z,280.00
2022-09-09T10:36:11.531Z,400.00
2022-09-09T10:37:11.528Z,436.00
2022-09-09T10:38:11.513Z,396.00
2022-09-09T10:39:11.521Z,392.00
2022-09-09T10:40:11.689Z,388.00
2022-09-09T10:41:11.528Z,376.00
2022-09-09T10:42:11.512Z,380.00
2022-09-09T10:43:11.509Z,364.00
2022-09-09T10:44:11.531Z,316.00
2022-09-09T10:45:11.522Z,300.00
2022-09-09T10:46:11.588Z,360.00
2022-09-09T10:47:11.515Z,344.00
2022-09-09T10:48:11.517Z,332.00
2022-09-09T10:49:11.517Z,492.00
2022-09-09T10:50:11.506Z,448.00
2022-09-09T10:51:11.501Z,360.00
2022-09-09T10:52:11.512Z,392.00
2022-09-09T10:53:11.511Z,336.00
2022-09-09T10:54:11.510Z,348.00
2022-09-09T10:55:11.497Z,440.00
2022-09-09T10:56:11.523Z,388.00
2022-09-09T10:57:11.515Z,276.00
2022-09-09T10:58:11.498Z,272.00
2022-09-09T10:59:11.503Z,276.00
2022-09-09T11:00:11.512Z,348.00
2022-09-09T11:01:11.547Z,484.00
2022-09-09T11:02:11.497Z,280.00
2022-09-09T11:03:11.501Z,252.00
2022-09-09T11:04:11.580Z,224.00
2022-09-09T11:05:11.583Z,220.00
2022-09-09T11:06:11.553Z,220.00
2022-09-09T11:07:12.171Z,224.00
2022-09-09T11:08:11.536Z,344.00
2022-09-09T11:09:11.498Z,344.00
2022-09-09T11:10:11.493Z,364.00
2022-09-09T11:11:11.517Z,332.00
2022-09-09T11:12:11.514Z,340.00
2022-09-09T11:13:11.496Z,384.00
2022-09-09T11:14:11.491Z,408.00
2022-09-09T11:15:11.496Z,392.00
2022-09-09T11:16:11.486Z,364.00
2022-09-09T11:17:11.484Z,292.00
2022-09-09T11:18:11.492Z,348.00
2022-09-09T11:19:11.489Z,356.00
2022-09-09T11:20:11.493Z,308.00
2022-09-09T11:21:11.491Z,328.00
2022-09-09T11:22:11.490Z,312.00
2022-09-09T11:23:11.537Z,340.00
2022-09-09T11:24:11.486Z,372.00
2022-09-09T11:25:11.524Z,372.00
2022-09-09T11:26:11.491Z,372.00
2022-09-09T11:27:11.485Z,328.00
2022-09-09T11:28:11.500Z,304.00
2022-09-09T11:29:11.503Z,272.00
2022-09-09T11:30:11.490Z,268.00
2022-09-09T11:31:11.571Z,268.00
2022-09-09T11:32:11.495Z,292.00
2022-09-09T11:33:11.479Z,304.00
2022-09-09T11:34:11.489Z,328.00
2022-09-09T11:35:11.506Z,384.00
2022-09-09T11:36:11.505Z,388.00
2022-09-09T11:37:11.477Z,320.00
2022-09-09T11:38:11.496Z,300.00
2022-09-09T11:39:11.511Z,336.00
2022-09-09T11:40:11.525Z,368.00
2022-09-09T11:41:11.490Z,328.00
2022-09-09T11:42:11.483Z,272.00
2022-09-09T11:43:11.471Z,252.00
2022-09-09T11:44:11.508Z,312.00
2022-09-09T11:45:11.494Z,340.00
2022-09-09T11:46:11.529Z,296.00
2022-09-09T11:47:11.473Z,396.00
2022-09-09T11:48:11.483Z,436.00
2022-09-09T11:49:11.465Z,404.00
2022-09-09T11:50:11.490Z,384.00
2022-09-09T11:51:16.622Z,372.00
2022-09-09T11:52:11.469Z,312.00
2022-09-09T11:53:11.466Z,320.00
2022-09-09T11:54:11.470Z,336.00
2022-09-09T11:55:11.490Z,300.00
2022-09-09T11:56:11.460Z,268.00
2022-09-09T11:57:11.465Z,200.00
2022-09-09T11:58:11.463Z,296.00
2022-09-09T11:59:11.455Z,284.00
2022-09-09T12:00:11.501Z,272.00
2022-09-09T12:01:11.472Z,260.00
2022-09-09T12:02:11.572Z,260.00
2022-09-09T12:03:11.469Z,196.00
2022-09-09T12:04:11.459Z,220.00
2022-09-09T12:05:11.499Z,228.00
2022-09-09T12:06:11.466Z,240.00
2022-09-09T12:07:11.455Z,188.00
2022-09-09T12:08:11.455Z,140.00
2022-09-09T12:09:11.461Z,116.00
2022-09-09T12:10:11.467Z,88.00
2022-09-09T12:11:11.462Z,88.00
2022-09-09T12:12:11.466Z,80.00
2022-09-09T12:13:11.452Z,88.00
2022-09-09T12:14:11.452Z,96.00
2022-09-09T12:15:11.450Z,108.00
2022-09-09T12:16:11.526Z,168.00
2022-09-09T12:17:11.453Z,168.00
2022-09-09T12:18:11.453Z,188.00
2022-09-09T12:19:11.453Z,288.00
2022-09-09T12:20:11.452Z,340.00
2022-09-09T12:21:11.455Z,372.00
2022-09-09T12:22:11.445Z,324.00
2022-09-09T12:23:11.449Z,268.00
2022-09-09T12:24:11.457Z,256.00
2022-09-09T12:25:11.445Z,248.00
2022-09-09T12:26:11.458Z,312.00
2022-09-09T12:27:11.450Z,332.00
2022-09-09T12:28:11.453Z,400.00
2022-09-09T12:29:11.443Z,388.00
2022-09-09T12:30:11.456Z,360.00
2022-09-09T12:31:11.535Z,360.00
2022-09-09T12:32:12.416Z,304.00
2022-09-09T12:33:11.451Z,272.00
2022-09-09T12:34:11.448Z,320.00
2022-09-09T12:35:11.449Z,292.00
2022-09-09T12:36:11.440Z,236.00
2022-09-09T12:37:11.446Z,224.00
2022-09-09T12:38:11.438Z,200.00
2022-09-09T12:39:11.438Z,188.00
2022-09-09T12:40:11.522Z,184.00
2022-09-09T12:41:11.444Z,180.00
2022-09-09T12:42:11.447Z,176.00
2022-09-09T12:43:11.440Z,156.00
2022-09-09T12:44:11.440Z,112.00
2022-09-09T12:45:11.443Z,108.00
2022-09-09T12:46:11.532Z,92.00
2022-09-09T12:47:11.485Z,116.00
2022-09-09T12:48:11.460Z,120.00
2022-09-09T12:49:11.523Z,176.00
2022-09-09T12:50:11.474Z,196.00
2022-09-09T12:51:11.497Z,292.00
2022-09-09T12:52:11.455Z,296.00
2022-09-09T12:53:11.434Z,400.00
2022-09-09T12:54:11.437Z,420.00
2022-09-09T12:55:11.432Z,368.00
2022-09-09T12:56:11.423Z,372.00
2022-09-09T12:57:11.421Z,444.00
2022-09-09T12:58:11.431Z,484.00
2022-09-09T12:59:11.448Z,508.00
2022-09-09T13:00:11.425Z,344.00
2022-09-09T13:01:11.465Z,288.00
2022-09-09T13:02:11.531Z,220.00
2022-09-09T13:03:11.424Z,180.00
2022-09-09T13:04:11.435Z,232.00
2022-09-09T13:05:11.424Z,332.00